createdAt,value
2018-04-27T12:32:47.532Z,29.40
2018-04-27T12:35:19.613Z,30.00
2018-04-27T12:37:52.717Z,30.50
2018-04-27T12:40:24.980Z,30.40
2018-04-27T12:42:57.243Z,30.60
2018-04-27T12:45:29.395Z,31.30
2018-04-27T12:48:02.568Z,31.00
2018-04-27T12:50:34.993Z,30.90
2018-04-27T12:53:09.304Z,30.30
2018-04-27T12:55:41.644Z,30.20
2018-04-27T12:58:14.072Z,30.70
2018-04-27T13:00:46.283Z,31.00
2018-04-27T13:03:18.404Z,31.10
2018-04-27T13:05:51.510Z,30.80
2018-04-27T13:08:25.056Z,30.50
2018-04-27T13:10:57.651Z,30.50
2018-04-27T13:13:30.080Z,30.60
2018-04-27T13:16:03.017Z,30.80
2018-04-27T13:18:35.683Z,30.80
2018-04-27T13:21:08.817Z,30.90
2018-04-27T13:23:41.198Z,30.90
2018-04-27T13:26:15.278Z,30.60
2018-04-27T13:28:49.772Z,30.80
2018-04-27T13:31:23.428Z,31.40
2018-04-27T13:33:59.177Z,31.00
2018-04-27T13:36:32.380Z,31.00
2018-04-27T13:39:07.017Z,31.40
2018-04-27T13:41:40.881Z,30.70
2018-04-27T13:44:13.331Z,29.10
2018-04-27T13:46:45.673Z,29.20
2018-04-27T13:49:20.267Z,28.00
2018-04-27T13:51:53.129Z,28.00
2018-04-27T13:54:26.663Z,28.50
2018-04-27T13:57:00.696Z,27.80
2018-04-27T13:59:33.232Z,27.10
2018-04-27T14:02:05.462Z,27.70
2018-04-27T14:04:43.412Z,26.50
2018-04-27T14:07:17.504Z,27.70
2018-04-27T14:09:50.556Z,27.60
2018-04-27T14:12:22.936Z,28.30
2018-04-27T14:14:56.416Z,26.80
2018-04-27T14:17:31.341Z,26.60
2018-04-27T14:20:05.491Z,27.00
2018-04-27T14:22:37.702Z,26.90
2018-04-27T14:25:10.388Z,27.30
2018-04-27T14:27:46.314Z,25.50
2018-04-27T14:30:19.009Z,26.40
2018-04-27T14:32:54.239Z,26.50
2018-04-27T14:35:31.822Z,26.80
2018-04-27T14:38:04.792Z,26.80
2018-04-27T14:40:40.095Z,27.50
2018-04-27T14:43:16.273Z,28.40
2018-04-27T14:45:48.977Z,28.80
2018-04-27T14:48:22.696Z,28.40
2018-04-27T14:50:56.074Z,28.40
2018-04-27T14:53:28.760Z,28.50
2018-04-27T14:56:02.378Z,28.20
2018-04-27T14:58:34.840Z,28.40
2018-04-27T15:01:09.254Z,28.60
2018-04-27T15:03:44.465Z,28.70
2018-04-27T15:06:19.292Z,28.30
2018-04-27T15:08:53.049Z,28.20
2018-04-27T15:11:26.851Z,28.80
2018-04-27T15:13:59.724Z,29.60
2018-04-27T15:16:33.096Z,30.00
2018-04-27T15:19:06.148Z,30.10
2018-04-27T15:21:39.224Z,30.00
2018-04-27T15:24:14.852Z,30.30
2018-04-27T15:26:47.324Z,30.50
2018-04-27T15:29:19.555Z,31.30
2018-04-27T15:31:51.798Z,32.20
2018-04-27T15:34:27.785Z,31.20
2018-04-27T15:37:01.130Z,31.00
2018-04-27T15:39:33.734Z,30.90
2018-04-27T15:42:07.587Z,30.80
2018-04-27T15:44:40.581Z,30.90
2018-04-27T15:47:14.014Z,30.70
2018-04-27T15:49:48.806Z,31.10
2018-04-27T15:52:21.299Z,31.30
2018-04-27T15:54:55.000Z,31.60
2018-04-27T15:57:27.907Z,31.70
2018-04-27T16:00:01.184Z,31.10
2018-04-27T16:02:35.408Z,31.50
2018-04-27T16:05:09.526Z,31.50
2018-04-27T16:07:43.843Z,32.00
2018-04-27T16:10:16.865Z,32.00
2018-04-27T16:12:49.202Z,32.40
2018-04-27T16:15:23.612Z,32.20
2018-04-27T16:17:57.196Z,32.10
2018-04-27T16:20:30.435Z,31.80
2018-04-27T16:23:04.817Z,32.20
2018-04-27T16:25:37.028Z,32.10
2018-04-27T16:28:11.286Z,32.30
2018-04-27T16:30:43.676Z,32.70
2018-04-27T16:33:17.084Z,33.00
2018-04-27T16:35:51.014Z,33.50
2018-04-27T16:38:23.894Z,33.40
2018-04-27T16:40:56.251Z,33.60
2018-04-27T16:43:29.605Z,33.60
2018-04-27T16:46:02.299Z,33.60
2018-04-27T16:48:34.840Z,33.70
2018-04-27T16:51:07.063Z,34.50
2018-04-27T16:53:40.492Z,34.50
2018-04-27T16:56:13.091Z,35.00
2018-04-27T16:58:51.959Z,34.50
2018-04-27T17:01:24.758Z,34.80
2018-04-27T17:03:57.000Z,35.00
2018-04-27T17:06:29.513Z,35.10
2018-04-27T17:09:02.607Z,35.10
2018-04-27T17:11:35.712Z,35.20
2018-04-27T17:14:08.322Z,35.20
2018-04-27T17:16:41.667Z,34.90
2018-04-27T17:19:14.692Z,34.70
2018-04-27T17:21:46.985Z,34.90
2018-04-27T17:24:24.521Z,34.40
2018-04-27T17:26:57.782Z,34.30
2018-04-27T17:29:30.381Z,34.30
2018-04-27T17:32:02.713Z,34.30
2018-04-27T17:34:35.105Z,34.30
2018-04-27T17:37:07.533Z,34.70
2018-04-27T17:39:39.844Z,35.00
2018-04-27T17:42:12.108Z,34.70
2018-04-27T17:44:45.884Z,34.50
2018-04-27T17:47:18.324Z,34.50
2018-04-27T17:49:50.852Z,34.80
2018-04-27T17:52:24.053Z,34.80
2018-04-27T17:54:56.510Z,35.30
2018-04-27T17:57:29.064Z,35.60
2018-04-27T18:00:02.339Z,36.00
2018-04-27T18:02:34.496Z,36.40
2018-04-27T18:05:06.840Z,36.60
2018-04-27T18:07:42.320Z,37.00
2018-04-27T18:10:14.575Z,37.10
2018-04-27T18:12:46.837Z,37.70
2018-04-27T18:15:19.172Z,37.70
2018-04-27T18:17:51.433Z,37.70
2018-04-27T18:20:25.769Z,37.50
2018-04-27T18:22:58.042Z,37.60
2018-04-27T18:25:30.593Z,38.10
2018-04-27T18:28:06.261Z,38.10
2018-04-27T18:30:38.576Z,38.40
2018-04-27T18:33:10.858Z,38.80
2018-04-27T18:35:43.375Z,39.20
2018-04-27T18:38:15.765Z,39.40
2018-04-27T18:40:47.956Z,39.10
2018-04-27T18:43:20.265Z,39.20
2018-04-27T18:45:52.600Z,39.20
2018-04-27T18:48:24.931Z,39.40
2018-04-27T18:50:57.250Z,39.70
2018-04-27T18:53:32.331Z,40.30
2018-04-27T18:56:05.320Z,40.50
2018-04-27T18:58:37.821Z,40.50
2018-04-27T19:01:10.337Z,40.80
2018-04-27T19:03:42.884Z,41.00
2018-04-27T19:06:15.065Z,41.10
2018-04-27T19:08:48.436Z,41.10
2018-04-27T19:11:20.801Z,41.30
2018-04-27T19:13:53.020Z,41.70
2018-04-27T19:16:25.518Z,42.60
2018-04-27T19:18:58.497Z,43.70
2018-04-27T19:21:30.773Z,44.30
2018-04-27T19:24:05.220Z,44.70
2018-04-27T19:26:37.511Z,45.20
2018-04-27T19:29:09.827Z,45.90
2018-04-27T19:31:42.291Z,46.10
2018-04-27T19:34:14.627Z,46.30
2018-04-27T19:36:46.944Z,46.30
2018-04-27T19:39:19.184Z,46.30
2018-04-27T19:41:51.593Z,47.00
2018-04-27T19:44:23.840Z,47.70
2018-04-27T19:46:56.240Z,48.00
2018-04-27T19:49:28.573Z,47.70
2018-04-27T19:52:00.897Z,48.10
2018-04-27T19:54:33.207Z,47.90
2018-04-27T19:57:05.505Z,48.50
2018-04-27T19:59:37.599Z,48.90
2018-04-27T20:04:50.446Z,48.50
2018-04-27T20:07:23.311Z,48.10
2018-04-27T20:24:35.100Z,47.90
2018-04-27T20:27:07.646Z,47.80
2018-04-27T20:29:41.050Z,47.70
2018-04-27T20:44:03.060Z,48.00
2018-04-27T20:46:35.252Z,48.10
2018-04-27T20:49:07.475Z,48.30
2018-04-27T20:51:40.063Z,48.40
2018-04-27T20:54:13.281Z,48.50
2018-04-27T20:56:45.552Z,48.50
2018-04-27T20:59:18.032Z,48.60
2018-04-27T21:01:51.255Z,48.60
2018-04-27T21:04:23.656Z,48.80
2018-04-27T21:06:56.749Z,49.00
2018-04-27T21:09:28.882Z,49.00
2018-04-27T21:12:01.713Z,49.50
2018-04-27T21:14:34.795Z,50.00
2018-04-27T21:17:08.088Z,50.80
2018-04-27T21:19:40.385Z,51.50
2018-04-27T21:22:12.891Z,51.80
2018-04-27T21:24:45.253Z,52.20
2018-04-27T21:27:17.478Z,52.70
2018-04-27T21:29:49.880Z,52.80
2018-04-27T21:32:22.343Z,53.10
2018-04-27T21:34:54.568Z,53.30
2018-04-27T21:37:26.918Z,54.30
2018-04-27T21:40:00.014Z,54.20
2018-04-27T21:42:32.378Z,54.10
2018-04-27T21:45:05.308Z,54.50
2018-04-27T21:47:48.732Z,55.30
2018-04-27T21:50:21.812Z,55.00
2018-04-27T21:52:54.055Z,55.30
2018-04-27T21:55:26.452Z,55.80
2018-04-27T21:57:59.008Z,56.30
2018-04-27T22:00:31.302Z,56.50
2018-04-27T22:03:11.751Z,56.70
2018-04-27T22:05:46.929Z,56.90
2018-04-27T22:08:25.285Z,57.20
2018-04-27T22:10:58.487Z,57.20
2018-04-27T22:13:31.596Z,57.40
2018-04-27T22:16:03.940Z,57.70
2018-04-27T22:18:36.196Z,57.90
2018-04-27T22:21:08.672Z,58.10
2018-04-27T22:23:41.667Z,58.50
2018-04-27T22:26:18.452Z,59.00
2018-04-27T22:28:51.380Z,59.00
2018-04-27T22:31:23.604Z,59.00
2018-04-27T22:34:00.716Z,58.60
2018-04-27T22:36:35.483Z,58.30
2018-04-27T22:42:07.743Z,57.10
2018-04-27T22:44:46.145Z,56.80
2018-04-27T22:47:19.295Z,56.70
2018-04-27T22:49:51.439Z,56.20
2018-04-27T22:52:23.863Z,55.80
2018-04-27T22:54:56.175Z,55.40
2018-04-27T23:00:27.949Z,54.70
2018-04-27T23:03:01.208Z,54.80
2018-04-27T23:05:34.176Z,54.60
2018-04-27T23:08:07.260Z,54.50
2018-04-27T23:10:47.343Z,54.20
2018-04-27T23:13:19.616Z,54.10
2018-04-27T23:15:54.875Z,54.00
2018-04-27T23:18:27.035Z,53.80
2018-04-27T23:21:00.145Z,53.50
2018-04-27T23:23:32.400Z,53.50
2018-04-27T23:26:05.355Z,53.10
2018-04-27T23:28:37.665Z,53.10
2018-04-27T23:31:09.981Z,53.00
2018-04-27T23:33:42.359Z,52.80
2018-04-27T23:36:14.679Z,52.80
2018-04-27T23:38:47.080Z,52.60
2018-04-27T23:41:19.377Z,52.40
2018-04-27T23:43:51.755Z,52.20
2018-04-27T23:46:23.893Z,51.90
2018-04-27T23:48:56.731Z,51.90
2018-04-27T23:51:28.948Z,51.80
2018-04-27T23:54:01.295Z,51.90
2018-04-27T23:56:36.482Z,52.10
2018-04-27T23:59:08.939Z,52.10
